Terminal Aerodrome Forecast
Issued by NWS State College, PA

Home | Current Version | Previous Version | Text Only | Print | Product List | Glossary On
Versions: 1 2 3 4 5 6 7 8 9 10 11 12 13 14 15 16 17 18 19 20 21 22 23 24 25 26 27 28 29 30
000
FTUS41 KCTP 041548 AAA
TAFMDT
TAF AMD
KMDT 041548Z 0416/0512 32005KT P6SM BKN040 OVC150
     FM042200 VRB02KT P6SM SCT050 OVC100
     FM050300 14005KT P6SM OVC040
     FM050600 14005KT 5SM -RA BR OVC015=

USA.gov is the U.S. government's official web portal to all federal, state and local government web resources and services.